sensor_id;sensor_type;location;lat;lon;timestamp;temperature;humidity
32877;DHT22;19226;51.600;8.034;2024-02-21T00:01:26;9.40;99.90
32877;DHT22;19226;51.600;8.034;2024-02-21T00:04:10;9.40;99.90
32877;DHT22;19226;51.600;8.034;2024-02-21T00:06:55;9.40;99.90
32877;DHT22;19226;51.600;8.034;2024-02-21T00:09:39;9.50;99.90
32877;DHT22;19226;51.600;8.034;2024-02-21T00:12:24;9.40;99.90
32877;DHT22;19226;51.600;8.034;2024-02-21T00:15:08;9.40;99.90
32877;DHT22;19226;51.600;8.034;2024-02-21T00:17:53;9.40;99.90
32877;DHT22;19226;51.600;8.034;2024-02-21T00:20:38;9.40;99.90
32877;DHT22;19226;51.600;8.034;2024-02-21T00:23:23;9.40;99.90
32877;DHT22;19226;51.600;8.034;2024-02-21T00:26:07;9.40;99.90
32877;DHT22;19226;51.600;8.034;2024-02-21T00:28:52;9.40;99.90
32877;DHT22;19226;51.600;8.034;2024-02-21T00:31:37;9.40;99.90
32877;DHT22;19226;51.600;8.034;2024-02-21T00:34:21;9.40;99.90
32877;DHT22;19226;51.600;8.034;2024-02-21T00:37:06;9.40;99.90
32877;DHT22;19226;51.600;8.034;2024-02-21T00:39:50;9.40;99.90
32877;DHT22;19226;51.600;8.034;2024-02-21T00:42:36;9.40;99.90
32877;DHT22;19226;51.600;8.034;2024-02-21T00:45:21;9.40;99.90
32877;DHT22;19226;51.600;8.034;2024-02-21T00:48:06;9.40;99.90
32877;DHT22;19226;51.600;8.034;2024-02-21T00:50:50;9.40;99.90
32877;DHT22;19226;51.600;8.034;2024-02-21T00:53:36;9.40;99.90
32877;DHT22;19226;51.600;8.034;2024-02-21T00:56:22;9.40;99.90
32877;DHT22;19226;51.600;8.034;2024-02-21T00:59:07;9.40;99.90
32877;DHT22;19226;51.600;8.034;2024-02-21T01:01:51;9.40;99.90
32877;DHT22;19226;51.600;8.034;2024-02-21T01:04:36;9.40;99.90
32877;DHT22;19226;51.600;8.034;2024-02-21T01:07:20;9.40;99.90
32877;DHT22;19226;51.600;8.034;2024-02-21T01:10:05;9.40;99.90
32877;DHT22;19226;51.600;8.034;2024-02-21T01:12:53;9.40;99.90
32877;DHT22;19226;51.600;8.034;2024-02-21T01:15:38;9.40;99.90
32877;DHT22;19226;51.600;8.034;2024-02-21T01:18:22;9.40;99.90
32877;DHT22;19226;51.600;8.034;2024-02-21T01:21:07;9.40;99.90
32877;DHT22;19226;51.600;8.034;2024-02-21T01:23:52;9.40;99.90
32877;DHT22;19226;51.600;8.034;2024-02-21T01:26:36;9.40;99.90
32877;DHT22;19226;51.600;8.034;2024-02-21T01:29:21;9.40;99.90
32877;DHT22;19226;51.600;8.034;2024-02-21T01:32:05;9.40;99.90
32877;DHT22;19226;51.600;8.034;2024-02-21T01:34:51;9.40;99.90
32877;DHT22;19226;51.600;8.034;2024-02-21T01:37:35;9.40;99.90
32877;DHT22;19226;51.600;8.034;2024-02-21T01:40:20;9.30;99.90
32877;DHT22;19226;51.600;8.034;2024-02-21T01:43:18;9.40;99.90
32877;DHT22;19226;51.600;8.034;2024-02-21T01:46:03;9.40;99.90
32877;DHT22;19226;51.600;8.034;2024-02-21T01:48:48;9.40;99.90
32877;DHT22;19226;51.600;8.034;2024-02-21T01:51:33;9.40;99.90
32877;DHT22;19226;51.600;8.034;2024-02-21T01:54:18;9.40;99.90
32877;DHT22;19226;51.600;8.034;2024-02-21T01:57:03;9.40;99.90
32877;DHT22;19226;51.600;8.034;2024-02-21T01:59:48;9.40;99.90
32877;DHT22;19226;51.600;8.034;2024-02-21T02:02:32;9.40;99.90
32877;DHT22;19226;51.600;8.034;2024-02-21T02:05:17;9.40;99.90
32877;DHT22;19226;51.600;8.034;2024-02-21T02:08:06;9.40;99.90
32877;DHT22;19226;51.600;8.034;2024-02-21T02:10:51;9.40;99.90
32877;DHT22;19226;51.600;8.034;2024-02-21T02:13:36;9.40;99.90
32877;DHT22;19226;51.600;8.034;2024-02-21T02:16:20;9.40;99.90
32877;DHT22;19226;51.600;8.034;2024-02-21T02:19:05;9.40;99.90
32877;DHT22;19226;51.600;8.034;2024-02-21T02:21:53;9.40;99.90
32877;DHT22;19226;51.600;8.034;2024-02-21T02:24:40;9.40;99.90
32877;DHT22;19226;51.600;8.034;2024-02-21T02:27:25;9.40;99.90
32877;DHT22;19226;51.600;8.034;2024-02-21T02:30:11;9.30;99.90
32877;DHT22;19226;51.600;8.034;2024-02-21T02:32:55;9.40;99.90
32877;DHT22;19226;51.600;8.034;2024-02-21T02:35:40;9.40;99.90
32877;DHT22;19226;51.600;8.034;2024-02-21T02:38:25;9.30;99.90
32877;DHT22;19226;51.600;8.034;2024-02-21T02:41:09;9.30;99.90
32877;DHT22;19226;51.600;8.034;2024-02-21T02:43:54;9.30;99.90
32877;DHT22;19226;51.600;8.034;2024-02-21T02:46:40;9.30;99.90
32877;DHT22;19226;51.600;8.034;2024-02-21T02:49:25;9.40;99.90
32877;DHT22;19226;51.600;8.034;2024-02-21T02:52:10;9.40;99.90
32877;DHT22;19226;51.600;8.034;2024-02-21T02:54:54;9.40;99.90
32877;DHT22;19226;51.600;8.034;2024-02-21T02:57:40;9.40;99.90
32877;DHT22;19226;51.600;8.034;2024-02-21T03:00:25;9.40;99.90
32877;DHT22;19226;51.600;8.034;2024-02-21T03:03:10;9.40;99.90
32877;DHT22;19226;51.600;8.034;2024-02-21T03:05:55;9.40;99.90
32877;DHT22;19226;51.600;8.034;2024-02-21T03:08:39;9.40;99.90
32877;DHT22;19226;51.600;8.034;2024-02-21T03:11:24;9.40;99.90
32877;DHT22;19226;51.600;8.034;2024-02-21T03:14:13;9.30;99.90
32877;DHT22;19226;51.600;8.034;2024-02-21T03:17:01;9.30;99.90
32877;DHT22;19226;51.600;8.034;2024-02-21T03:19:46;9.30;99.90
32877;DHT22;19226;51.600;8.034;2024-02-21T03:22:33;9.20;99.90
32877;DHT22;19226;51.600;8.034;2024-02-21T03:25:17;9.20;99.90
32877;DHT22;19226;51.600;8.034;2024-02-21T03:28:03;9.20;99.90
32877;DHT22;19226;51.600;8.034;2024-02-21T03:30:48;9.10;99.90
32877;DHT22;19226;51.600;8.034;2024-02-21T03:33:32;9.10;99.90
32877;DHT22;19226;51.600;8.034;2024-02-21T03:36:17;9.10;99.90
32877;DHT22;19226;51.600;8.034;2024-02-21T03:39:01;9.10;99.90
32877;DHT22;19226;51.600;8.034;2024-02-21T03:41:46;9.10;99.90
32877;DHT22;19226;51.600;8.034;2024-02-21T03:44:31;9.00;99.90
32877;DHT22;19226;51.600;8.034;2024-02-21T03:47:16;9.10;99.90
32877;DHT22;19226;51.600;8.034;2024-02-21T03:50:01;9.00;99.90
32877;DHT22;19226;51.600;8.034;2024-02-21T03:52:45;9.00;99.90
32877;DHT22;19226;51.600;8.034;2024-02-21T03:55:30;8.90;99.90
32877;DHT22;19226;51.600;8.034;2024-02-21T03:58:15;9.00;99.90
32877;DHT22;19226;51.600;8.034;2024-02-21T04:01:03;9.00;99.90
32877;DHT22;19226;51.600;8.034;2024-02-21T04:03:47;9.00;99.90
32877;DHT22;19226;51.600;8.034;2024-02-21T04:06:32;9.00;99.90
32877;DHT22;19226;51.600;8.034;2024-02-21T04:09:17;8.90;99.90
32877;DHT22;19226;51.600;8.034;2024-02-21T04:12:02;8.90;99.90
32877;DHT22;19226;51.600;8.034;2024-02-21T04:14:46;9.00;99.90
32877;DHT22;19226;51.600;8.034;2024-02-21T04:17:31;9.00;99.90
32877;DHT22;19226;51.600;8.034;2024-02-21T04:20:16;9.00;99.90
32877;DHT22;19226;51.600;8.034;2024-02-21T04:23:01;9.00;99.90
32877;DHT22;19226;51.600;8.034;2024-02-21T04:25:45;9.10;99.90
32877;DHT22;19226;51.600;8.034;2024-02-21T04:28:30;9.10;99.90
32877;DHT22;19226;51.600;8.034;2024-02-21T04:31:14;9.10;99.90
32877;DHT22;19226;51.600;8.034;2024-02-21T04:33:59;9.00;99.90
32877;DHT22;19226;51.600;8.034;2024-02-21T04:36:44;9.00;99.90
32877;DHT22;19226;51.600;8.034;2024-02-21T04:39:29;9.00;99.90
32877;DHT22;19226;51.600;8.034;2024-02-21T04:42:13;9.00;99.90
32877;DHT22;19226;51.600;8.034;2024-02-21T04:44:58;9.00;99.90
32877;DHT22;19226;51.600;8.034;2024-02-21T04:47:43;9.10;99.90
32877;DHT22;19226;51.600;8.034;2024-02-21T04:50:27;9.10;99.90
32877;DHT22;19226;51.600;8.034;2024-02-21T04:53:12;9.10;99.90
32877;DHT22;19226;51.600;8.034;2024-02-21T04:55:56;9.10;99.90
32877;DHT22;19226;51.600;8.034;2024-02-21T04:58:41;9.10;99.90
32877;DHT22;19226;51.600;8.034;2024-02-21T05:01:25;9.10;99.90
32877;DHT22;19226;51.600;8.034;2024-02-21T05:04:10;9.10;99.90
32877;DHT22;19226;51.600;8.034;2024-02-21T05:06:55;9.10;99.90
32877;DHT22;19226;51.600;8.034;2024-02-21T05:09:39;9.10;99.90
32877;DHT22;19226;51.600;8.034;2024-02-21T05:12:23;9.20;99.90
32877;DHT22;19226;51.600;8.034;2024-02-21T05:15:08;9.10;99.90
32877;DHT22;19226;51.600;8.034;2024-02-21T05:17:53;9.20;99.90
32877;DHT22;19226;51.600;8.034;2024-02-21T05:20:37;9.20;99.90
32877;DHT22;19226;51.600;8.034;2024-02-21T05:23:22;9.20;99.90
32877;DHT22;19226;51.600;8.034;2024-02-21T05:26:07;9.20;99.90
32877;DHT22;19226;51.600;8.034;2024-02-21T05:28:51;9.20;99.90
32877;DHT22;19226;51.600;8.034;2024-02-21T05:31:55;9.10;99.90
32877;DHT22;19226;51.600;8.034;2024-02-21T05:34:43;9.20;99.90
32877;DHT22;19226;51.600;8.034;2024-02-21T05:37:27;9.20;99.90
32877;DHT22;19226;51.600;8.034;2024-02-21T05:40:12;9.20;99.90
32877;DHT22;19226;51.600;8.034;2024-02-21T05:42:57;9.20;99.90
32877;DHT22;19226;51.600;8.034;2024-02-21T05:45:42;9.20;99.90
32877;DHT22;19226;51.600;8.034;2024-02-21T05:48:26;9.20;99.90
32877;DHT22;19226;51.600;8.034;2024-02-21T05:51:11;9.20;99.90
32877;DHT22;19226;51.600;8.034;2024-02-21T05:53:55;9.20;99.90
32877;DHT22;19226;51.600;8.034;2024-02-21T05:56:44;9.20;99.90
32877;DHT22;19226;51.600;8.034;2024-02-21T05:59:29;9.30;99.90
32877;DHT22;19226;51.600;8.034;2024-02-21T06:02:15;9.20;99.90
32877;DHT22;19226;51.600;8.034;2024-02-21T06:04:59;9.20;99.90
32877;DHT22;19226;51.600;8.034;2024-02-21T06:07:44;9.20;99.90
32877;DHT22;19226;51.600;8.034;2024-02-21T06:10:28;9.30;99.90
32877;DHT22;19226;51.600;8.034;2024-02-21T06:13:13;9.30;99.90
32877;DHT22;19226;51.600;8.034;2024-02-21T06:15:57;9.20;99.90
32877;DHT22;19226;51.600;8.034;2024-02-21T06:18:42;9.20;99.90
32877;DHT22;19226;51.600;8.034;2024-02-21T06:21:29;9.30;99.90
32877;DHT22;19226;51.600;8.034;2024-02-21T06:24:14;9.30;99.90
32877;DHT22;19226;51.600;8.034;2024-02-21T06:27:05;9.30;99.90
32877;DHT22;19226;51.600;8.034;2024-02-21T06:29:52;9.30;99.90
32877;DHT22;19226;51.600;8.034;2024-02-21T06:32:37;9.30;99.90
32877;DHT22;19226;51.600;8.034;2024-02-21T06:35:22;9.30;99.90
32877;DHT22;19226;51.600;8.034;2024-02-21T06:38:10;9.30;99.90
32877;DHT22;19226;51.600;8.034;2024-02-21T06:40:54;9.20;99.90
32877;DHT22;19226;51.600;8.034;2024-02-21T06:43:39;9.30;99.90
32877;DHT22;19226;51.600;8.034;2024-02-21T06:46:27;9.20;99.90
32877;DHT22;19226;51.600;8.034;2024-02-21T06:49:17;9.30;99.90
32877;DHT22;19226;51.600;8.034;2024-02-21T06:52:02;9.20;99.90
32877;DHT22;19226;51.600;8.034;2024-02-21T06:54:47;9.30;99.90
32877;DHT22;19226;51.600;8.034;2024-02-21T06:57:31;9.30;99.90
32877;DHT22;19226;51.600;8.034;2024-02-21T07:00:16;9.30;99.90
32877;DHT22;19226;51.600;8.034;2024-02-21T07:03:01;9.30;99.90
32877;DHT22;19226;51.600;8.034;2024-02-21T07:05:46;9.30;99.90
32877;DHT22;19226;51.600;8.034;2024-02-21T07:08:33;9.30;99.90
32877;DHT22;19226;51.600;8.034;2024-02-21T07:11:18;9.30;99.90
32877;DHT22;19226;51.600;8.034;2024-02-21T07:14:02;9.30;99.90
32877;DHT22;19226;51.600;8.034;2024-02-21T07:16:47;9.30;99.90
32877;DHT22;19226;51.600;8.034;2024-02-21T07:19:31;9.40;99.90
32877;DHT22;19226;51.600;8.034;2024-02-21T07:22:16;9.40;99.90
32877;DHT22;19226;51.600;8.034;2024-02-21T07:25:01;9.40;99.90
32877;DHT22;19226;51.600;8.034;2024-02-21T07:27:45;9.40;99.90
32877;DHT22;19226;51.600;8.034;2024-02-21T07:30:30;9.40;99.90
32877;DHT22;19226;51.600;8.034;2024-02-21T07:33:14;9.40;99.90
32877;DHT22;19226;51.600;8.034;2024-02-21T07:35:59;9.40;99.90
32877;DHT22;19226;51.600;8.034;2024-02-21T07:38:43;9.40;99.90
32877;DHT22;19226;51.600;8.034;2024-02-21T07:41:28;9.40;99.90
32877;DHT22;19226;51.600;8.034;2024-02-21T07:44:15;9.50;99.90
32877;DHT22;19226;51.600;8.034;2024-02-21T07:47:00;9.50;99.90
32877;DHT22;19226;51.600;8.034;2024-02-21T07:49:45;9.50;99.90
32877;DHT22;19226;51.600;8.034;2024-02-21T07:52:30;9.50;99.90
32877;DHT22;19226;51.600;8.034;2024-02-21T07:55:14;9.60;99.90
32877;DHT22;19226;51.600;8.034;2024-02-21T07:57:59;9.60;99.90
32877;DHT22;19226;51.600;8.034;2024-02-21T08:00:44;9.50;99.90
32877;DHT22;19226;51.600;8.034;2024-02-21T08:03:29;9.60;99.90
32877;DHT22;19226;51.600;8.034;2024-02-21T08:06:14;9.60;99.90
32877;DHT22;19226;51.600;8.034;2024-02-21T08:08:58;9.60;99.90
32877;DHT22;19226;51.600;8.034;2024-02-21T08:11:44;9.60;99.90
32877;DHT22;19226;51.600;8.034;2024-02-21T08:14:29;9.70;99.90
32877;DHT22;19226;51.600;8.034;2024-02-21T08:17:13;9.70;99.90
32877;DHT22;19226;51.600;8.034;2024-02-21T08:19:58;9.70;99.90
32877;DHT22;19226;51.600;8.034;2024-02-21T08:22:42;9.80;99.90
32877;DHT22;19226;51.600;8.034;2024-02-21T08:25:27;9.80;99.90
32877;DHT22;19226;51.600;8.034;2024-02-21T08:28:11;9.80;99.90
32877;DHT22;19226;51.600;8.034;2024-02-21T08:30:57;9.80;99.90
32877;DHT22;19226;51.600;8.034;2024-02-21T08:33:42;9.90;99.90
32877;DHT22;19226;51.600;8.034;2024-02-21T08:36:26;9.90;99.90
32877;DHT22;19226;51.600;8.034;2024-02-21T08:39:11;9.90;99.90
32877;DHT22;19226;51.600;8.034;2024-02-21T08:41:59;9.90;99.90
32877;DHT22;19226;51.600;8.034;2024-02-21T08:44:44;10.00;99.90
32877;DHT22;19226;51.600;8.034;2024-02-21T08:47:29;10.00;99.90
32877;DHT22;19226;51.600;8.034;2024-02-21T08:50:13;10.00;99.90
32877;DHT22;19226;51.600;8.034;2024-02-21T08:52:57;10.00;99.90
32877;DHT22;19226;51.600;8.034;2024-02-21T08:55:42;10.00;99.90
32877;DHT22;19226;51.600;8.034;2024-02-21T08:58:28;10.00;99.90
32877;DHT22;19226;51.600;8.034;2024-02-21T09:01:14;10.10;99.90
32877;DHT22;19226;51.600;8.034;2024-02-21T09:03:59;10.10;99.90
32877;DHT22;19226;51.600;8.034;2024-02-21T09:06:44;10.10;99.90
32877;DHT22;19226;51.600;8.034;2024-02-21T09:09:29;10.10;99.90
32877;DHT22;19226;51.600;8.034;2024-02-21T09:12:14;10.10;99.90
32877;DHT22;19226;51.600;8.034;2024-02-21T09:14:59;10.10;99.90
32877;DHT22;19226;51.600;8.034;2024-02-21T09:17:43;10.20;99.90
32877;DHT22;19226;51.600;8.034;2024-02-21T09:20:28;10.20;99.90
32877;DHT22;19226;51.600;8.034;2024-02-21T09:23:13;10.20;99.90
32877;DHT22;19226;51.600;8.034;2024-02-21T09:25:58;10.20;99.90
32877;DHT22;19226;51.600;8.034;2024-02-21T09:28:44;10.20;99.90
32877;DHT22;19226;51.600;8.034;2024-02-21T09:31:29;10.20;99.90
32877;DHT22;19226;51.600;8.034;2024-02-21T09:34:13;10.20;99.90
32877;DHT22;19226;51.600;8.034;2024-02-21T09:36:58;10.30;99.90
32877;DHT22;19226;51.600;8.034;2024-02-21T09:39:43;10.30;99.90
32877;DHT22;19226;51.600;8.034;2024-02-21T09:42:37;10.30;99.90
32877;DHT22;19226;51.600;8.034;2024-02-21T09:45:25;10.30;99.90
32877;DHT22;19226;51.600;8.034;2024-02-21T09:48:27;10.40;99.90
32877;DHT22;19226;51.600;8.034;2024-02-21T09:51:14;10.40;99.90
32877;DHT22;19226;51.600;8.034;2024-02-21T09:53:59;10.40;99.90
32877;DHT22;19226;51.600;8.034;2024-02-21T09:56:47;10.40;99.90
32877;DHT22;19226;51.600;8.034;2024-02-21T09:59:33;10.50;99.90
32877;DHT22;19226;51.600;8.034;2024-02-21T10:02:18;10.50;99.90
32877;DHT22;19226;51.600;8.034;2024-02-21T10:05:03;10.60;99.90
32877;DHT22;19226;51.600;8.034;2024-02-21T10:07:49;10.60;99.90
32877;DHT22;19226;51.600;8.034;2024-02-21T10:10:44;10.60;99.90
32877;DHT22;19226;51.600;8.034;2024-02-21T10:13:29;10.70;99.90
32877;DHT22;19226;51.600;8.034;2024-02-21T10:16:15;10.70;99.90
32877;DHT22;19226;51.600;8.034;2024-02-21T10:19:00;10.70;99.90
32877;DHT22;19226;51.600;8.034;2024-02-21T10:21:57;10.70;99.90
32877;DHT22;19226;51.600;8.034;2024-02-21T10:24:42;10.80;99.90
32877;DHT22;19226;51.600;8.034;2024-02-21T10:27:26;10.90;99.90
32877;DHT22;19226;51.600;8.034;2024-02-21T10:30:14;10.90;99.90
32877;DHT22;19226;51.600;8.034;2024-02-21T10:32:59;10.90;99.90
32877;DHT22;19226;51.600;8.034;2024-02-21T10:35:44;11.00;99.90
32877;DHT22;19226;51.600;8.034;2024-02-21T10:38:29;11.00;99.90
32877;DHT22;19226;51.600;8.034;2024-02-21T10:41:19;11.00;99.90
32877;DHT22;19226;51.600;8.034;2024-02-21T10:44:05;10.90;99.90
32877;DHT22;19226;51.600;8.034;2024-02-21T10:46:51;10.90;99.90
32877;DHT22;19226;51.600;8.034;2024-02-21T10:49:40;10.90;99.90
32877;DHT22;19226;51.600;8.034;2024-02-21T10:55:47;10.90;99.90
32877;DHT22;19226;51.600;8.034;2024-02-21T10:58:33;10.80;99.90
32877;DHT22;19226;51.600;8.034;2024-02-21T11:01:18;10.80;99.90
32877;DHT22;19226;51.600;8.034;2024-02-21T11:04:05;10.80;99.90
32877;DHT22;19226;51.600;8.034;2024-02-21T11:06:50;10.80;99.90
32877;DHT22;19226;51.600;8.034;2024-02-21T11:09:35;10.90;99.90
32877;DHT22;19226;51.600;8.034;2024-02-21T11:12:21;10.80;99.90
32877;DHT22;19226;51.600;8.034;2024-02-21T11:15:06;10.80;99.90
32877;DHT22;19226;51.600;8.034;2024-02-21T11:17:56;10.80;99.90
32877;DHT22;19226;51.600;8.034;2024-02-21T11:20:49;10.90;99.90
32877;DHT22;19226;51.600;8.034;2024-02-21T11:23:33;10.90;99.90
32877;DHT22;19226;51.600;8.034;2024-02-21T11:26:19;10.90;99.90
32877;DHT22;19226;51.600;8.034;2024-02-21T11:29:04;10.90;99.90
32877;DHT22;19226;51.600;8.034;2024-02-21T11:31:48;10.90;99.90
32877;DHT22;19226;51.600;8.034;2024-02-21T11:34:33;10.80;99.90
32877;DHT22;19226;51.600;8.034;2024-02-21T11:37:18;10.80;99.90
32877;DHT22;19226;51.600;8.034;2024-02-21T11:40:03;10.80;99.90
32877;DHT22;19226;51.600;8.034;2024-02-21T11:42:48;10.80;99.90
32877;DHT22;19226;51.600;8.034;2024-02-21T11:45:33;10.80;99.90
32877;DHT22;19226;51.600;8.034;2024-02-21T11:48:18;10.80;99.90
32877;DHT22;19226;51.600;8.034;2024-02-21T11:51:02;10.80;99.90
32877;DHT22;19226;51.600;8.034;2024-02-21T11:53:48;10.80;99.90
32877;DHT22;19226;51.600;8.034;2024-02-21T11:56:32;10.90;99.90
32877;DHT22;19226;51.600;8.034;2024-02-21T11:59:19;10.90;99.90
32877;DHT22;19226;51.600;8.034;2024-02-21T12:02:06;10.90;99.90
32877;DHT22;19226;51.600;8.034;2024-02-21T12:04:52;10.90;99.90
32877;DHT22;19226;51.600;8.034;2024-02-21T12:07:39;11.00;99.90
32877;DHT22;19226;51.600;8.034;2024-02-21T12:10:26;11.00;99.90
32877;DHT22;19226;51.600;8.034;2024-02-21T12:13:11;11.00;99.90
32877;DHT22;19226;51.600;8.034;2024-02-21T12:15:56;11.00;99.90
32877;DHT22;19226;51.600;8.034;2024-02-21T12:18:41;11.10;99.90
32877;DHT22;19226;51.600;8.034;2024-02-21T12:21:26;11.10;99.90
32877;DHT22;19226;51.600;8.034;2024-02-21T12:24:23;11.20;99.90
32877;DHT22;19226;51.600;8.034;2024-02-21T12:27:08;11.20;99.90
32877;DHT22;19226;51.600;8.034;2024-02-21T12:29:53;11.20;99.90
32877;DHT22;19226;51.600;8.034;2024-02-21T12:32:37;11.20;99.90
32877;DHT22;19226;51.600;8.034;2024-02-21T12:35:22;11.20;99.90
32877;DHT22;19226;51.600;8.034;2024-02-21T12:38:06;11.10;99.90
32877;DHT22;19226;51.600;8.034;2024-02-21T12:40:51;11.10;99.90
32877;DHT22;19226;51.600;8.034;2024-02-21T12:43:36;11.10;99.90
32877;DHT22;19226;51.600;8.034;2024-02-21T12:46:22;11.10;99.90
32877;DHT22;19226;51.600;8.034;2024-02-21T12:49:06;11.10;99.90
32877;DHT22;19226;51.600;8.034;2024-02-21T12:51:54;11.10;99.90
32877;DHT22;19226;51.600;8.034;2024-02-21T12:54:40;11.10;99.90
32877;DHT22;19226;51.600;8.034;2024-02-21T12:57:24;11.10;99.90
32877;DHT22;19226;51.600;8.034;2024-02-21T13:00:09;11.10;99.90
32877;DHT22;19226;51.600;8.034;2024-02-21T13:02:55;11.10;99.90
32877;DHT22;19226;51.600;8.034;2024-02-21T13:05:40;11.10;99.90
32877;DHT22;19226;51.600;8.034;2024-02-21T13:08:25;11.10;99.90
32877;DHT22;19226;51.600;8.034;2024-02-21T13:11:10;11.10;99.90
32877;DHT22;19226;51.600;8.034;2024-02-21T13:13:55;11.10;99.90
32877;DHT22;19226;51.600;8.034;2024-02-21T13:16:39;11.20;99.90
32877;DHT22;19226;51.600;8.034;2024-02-21T13:19:27;11.20;99.90
32877;DHT22;19226;51.600;8.034;2024-02-21T13:22:11;11.10;99.90
32877;DHT22;19226;51.600;8.034;2024-02-21T13:24:56;11.10;99.90
32877;DHT22;19226;51.600;8.034;2024-02-21T13:27:40;11.10;99.90
32877;DHT22;19226;51.600;8.034;2024-02-21T13:30:26;11.10;99.90
32877;DHT22;19226;51.600;8.034;2024-02-21T13:33:11;11.10;99.90
32877;DHT22;19226;51.600;8.034;2024-02-21T13:35:56;11.10;99.90
32877;DHT22;19226;51.600;8.034;2024-02-21T13:38:41;11.10;99.90
32877;DHT22;19226;51.600;8.034;2024-02-21T13:41:26;11.10;99.90
32877;DHT22;19226;51.600;8.034;2024-02-21T13:44:10;11.20;99.90
32877;DHT22;19226;51.600;8.034;2024-02-21T13:46:56;11.20;99.90
32877;DHT22;19226;51.600;8.034;2024-02-21T13:49:41;11.20;99.90
32877;DHT22;19226;51.600;8.034;2024-02-21T13:52:26;11.30;99.90
32877;DHT22;19226;51.600;8.034;2024-02-21T13:55:10;11.40;99.90
32877;DHT22;19226;51.600;8.034;2024-02-21T13:57:55;11.40;99.90
32877;DHT22;19226;51.600;8.034;2024-02-21T14:00:39;11.40;99.90
32877;DHT22;19226;51.600;8.034;2024-02-21T14:03:24;11.50;99.90
32877;DHT22;19226;51.600;8.034;2024-02-21T14:06:10;11.60;99.90
32877;DHT22;19226;51.600;8.034;2024-02-21T14:08:55;11.70;99.90
32877;DHT22;19226;51.600;8.034;2024-02-21T14:11:40;11.80;99.90
32877;DHT22;19226;51.600;8.034;2024-02-21T14:14:26;11.80;99.90
32877;DHT22;19226;51.600;8.034;2024-02-21T14:17:10;11.90;99.90
32877;DHT22;19226;51.600;8.034;2024-02-21T14:19:56;12.00;99.90
32877;DHT22;19226;51.600;8.034;2024-02-21T14:22:40;12.00;99.90
32877;DHT22;19226;51.600;8.034;2024-02-21T14:25:25;12.00;99.90
32877;DHT22;19226;51.600;8.034;2024-02-21T14:28:09;12.00;99.90
32877;DHT22;19226;51.600;8.034;2024-02-21T14:30:54;12.00;99.90
32877;DHT22;19226;51.600;8.034;2024-02-21T14:33:41;12.10;99.90
32877;DHT22;19226;51.600;8.034;2024-02-21T14:36:26;12.00;99.90
32877;DHT22;19226;51.600;8.034;2024-02-21T14:39:11;12.10;99.90
32877;DHT22;19226;51.600;8.034;2024-02-21T14:41:56;12.10;99.90
32877;DHT22;19226;51.600;8.034;2024-02-21T14:44:40;12.10;99.90
32877;DHT22;19226;51.600;8.034;2024-02-21T14:47:25;12.00;99.90
32877;DHT22;19226;51.600;8.034;2024-02-21T14:50:10;12.00;99.90
32877;DHT22;19226;51.600;8.034;2024-02-21T14:52:54;12.00;99.90
32877;DHT22;19226;51.600;8.034;2024-02-21T14:55:39;12.00;99.90
32877;DHT22;19226;51.600;8.034;2024-02-21T14:58:26;12.00;99.90
32877;DHT22;19226;51.600;8.034;2024-02-21T15:01:11;12.00;99.90
32877;DHT22;19226;51.600;8.034;2024-02-21T15:03:57;12.00;99.90
32877;DHT22;19226;51.600;8.034;2024-02-21T15:06:42;12.00;99.90
32877;DHT22;19226;51.600;8.034;2024-02-21T15:09:29;12.00;99.90
32877;DHT22;19226;51.600;8.034;2024-02-21T15:12:14;12.00;99.90
32877;DHT22;19226;51.600;8.034;2024-02-21T15:14:59;12.00;99.90
32877;DHT22;19226;51.600;8.034;2024-02-21T15:17:44;12.00;99.90
32877;DHT22;19226;51.600;8.034;2024-02-21T15:20:30;12.00;99.90
32877;DHT22;19226;51.600;8.034;2024-02-21T15:23:15;11.90;99.90
32877;DHT22;19226;51.600;8.034;2024-02-21T15:26:02;11.90;99.90
32877;DHT22;19226;51.600;8.034;2024-02-21T15:28:47;11.90;99.90
32877;DHT22;19226;51.600;8.034;2024-02-21T15:31:31;11.90;99.90
32877;DHT22;19226;51.600;8.034;2024-02-21T15:34:16;11.90;99.90
32877;DHT22;19226;51.600;8.034;2024-02-21T15:37:01;11.90;99.90
32877;DHT22;19226;51.600;8.034;2024-02-21T15:39:46;11.90;99.90
32877;DHT22;19226;51.600;8.034;2024-02-21T15:42:30;11.90;99.90
32877;DHT22;19226;51.600;8.034;2024-02-21T15:45:16;11.80;99.90
32877;DHT22;19226;51.600;8.034;2024-02-21T15:48:01;11.80;99.90
32877;DHT22;19226;51.600;8.034;2024-02-21T15:50:48;11.80;99.90
32877;DHT22;19226;51.600;8.034;2024-02-21T15:53:33;11.70;99.90
32877;DHT22;19226;51.600;8.034;2024-02-21T15:56:18;11.70;99.90
32877;DHT22;19226;51.600;8.034;2024-02-21T15:59:03;11.70;99.90
32877;DHT22;19226;51.600;8.034;2024-02-21T16:01:50;11.70;99.90
32877;DHT22;19226;51.600;8.034;2024-02-21T16:04:35;11.70;99.90
32877;DHT22;19226;51.600;8.034;2024-02-21T16:07:20;11.70;99.90
32877;DHT22;19226;51.600;8.034;2024-02-21T16:10:06;11.60;99.90
32877;DHT22;19226;51.600;8.034;2024-02-21T16:12:50;11.60;99.90
32877;DHT22;19226;51.600;8.034;2024-02-21T16:15:35;11.60;99.90
32877;DHT22;19226;51.600;8.034;2024-02-21T16:18:21;11.60;99.90
32877;DHT22;19226;51.600;8.034;2024-02-21T16:21:08;11.60;99.90
32877;DHT22;19226;51.600;8.034;2024-02-21T16:23:53;11.60;99.90
32877;DHT22;19226;51.600;8.034;2024-02-21T16:26:37;11.60;99.90
32877;DHT22;19226;51.600;8.034;2024-02-21T16:29:22;11.60;99.90
32877;DHT22;19226;51.600;8.034;2024-02-21T16:32:07;11.60;99.90
32877;DHT22;19226;51.600;8.034;2024-02-21T16:34:52;11.60;99.90
32877;DHT22;19226;51.600;8.034;2024-02-21T16:37:36;11.60;99.90
32877;DHT22;19226;51.600;8.034;2024-02-21T16:40:23;11.60;99.90
32877;DHT22;19226;51.600;8.034;2024-02-21T16:43:07;11.60;99.90
32877;DHT22;19226;51.600;8.034;2024-02-21T16:45:53;11.50;99.90
32877;DHT22;19226;51.600;8.034;2024-02-21T16:48:38;11.50;99.90
32877;DHT22;19226;51.600;8.034;2024-02-21T16:51:23;11.50;99.90
32877;DHT22;19226;51.600;8.034;2024-02-21T16:54:07;11.40;99.90
32877;DHT22;19226;51.600;8.034;2024-02-21T16:56:55;11.40;99.90
32877;DHT22;19226;51.600;8.034;2024-02-21T16:59:39;11.40;99.90
32877;DHT22;19226;51.600;8.034;2024-02-21T17:02:24;11.40;99.90
32877;DHT22;19226;51.600;8.034;2024-02-21T17:05:09;11.30;99.90
32877;DHT22;19226;51.600;8.034;2024-02-21T17:07:54;11.30;99.90
32877;DHT22;19226;51.600;8.034;2024-02-21T17:10:38;11.30;99.90
32877;DHT22;19226;51.600;8.034;2024-02-21T17:13:25;11.30;99.90
32877;DHT22;19226;51.600;8.034;2024-02-21T17:16:10;11.30;99.90
32877;DHT22;19226;51.600;8.034;2024-02-21T17:18:54;11.20;99.90
32877;DHT22;19226;51.600;8.034;2024-02-21T17:21:39;11.20;99.90
32877;DHT22;19226;51.600;8.034;2024-02-21T17:24:24;11.20;99.90
32877;DHT22;19226;51.600;8.034;2024-02-21T17:27:08;11.20;99.90
32877;DHT22;19226;51.600;8.034;2024-02-21T17:29:53;11.30;99.90
32877;DHT22;19226;51.600;8.034;2024-02-21T17:32:38;11.30;99.90
32877;DHT22;19226;51.600;8.034;2024-02-21T17:35:22;11.20;99.90